Hickory Hill, Arkansas
Current Conditions -  °F | °C
As of 2:53 PM on Thursday 27 Nov 2014 (Local Time) from KRUE Reporting Station
Clear Clear  
Wind Chill:   Ceiling: Unl
Heat Index:   Visibility: 10mi
Dew Point: -3°   Wind: 5mph
Humidity: 41%   Direction: NA
Pressure: 30.46"   Gusts: NA
Location:  35.227°N, 92.6879°W
Report Text: KRUE 272053Z AUTO VRB04KT 10SM CLR 09/M03 A3046 RMK AO2 SLP312 T00941033 58020
Loading
Personal Weather Stations






























Interactive Weather Map New forecast layout! Learn more

10-Day Weather Forecast

Advertisements
Track Severe Weather on mobile